Main page
METAR-TAF:

METAR-TAF

Airports :

Gloucestershire Airport

Gloucester, England

latitude: 51-54N, longitude: 002-10W, elevation: 29 m

Current weather observation

The report was made 2 hours and 33 minutes ago, at 18:50 UTC
Wind 9 kt from the South/Southwest
Temperature 12°C
Humidity 76%
Pressure 1022 hPa
Visibility 10 km or more
Few clouds at a height of 3500 ft

METAR: EGBJ 131850Z 20009KT 9999 FEW035 12/08 Q1022

Time: 21:23 (21:23 UTC)

Forecast

The report was made 4 hours and 17 minutes ago, at 17:06 UTC
Forecast valid from 13 at 18 UTC to 13 at 20 UTC
Wind 11 kt from the South/Southwest
Visibility 10 km or more
Few clouds at a height of 3000 ft

TAF: EGBJ 131706Z 1318/1320 20011KT 9999 FEW030

Weather observations and forecasts of more than 4000 airports (METAR and TAF reports).

The available stations are represented by yellow and red dots on the map.

Hover mouse over dot to see the name of the station.

Then click to see weather observations and forecasts.

To change the map : click on the green buttons with a black cross to zoom in, on the green button with a dash to zoom out, or on the green arrows for adjacent maps.


METAR-TAF: